sensor_id;sensor_type;location;lat;lon;timestamp;P1;durP1;ratioP1;P2;durP2;ratioP2
9461;SDS011;4769;42.660;23.262;2023-10-31T00:01:59;6.07;;;3.63;;
9461;SDS011;4769;42.660;23.262;2023-10-31T00:04:24;8.57;;;3.92;;
9461;SDS011;4769;42.660;23.262;2023-10-31T00:06:50;6.15;;;3.92;;
9461;SDS011;4769;42.660;23.262;2023-10-31T00:09:16;11.27;;;4.40;;
9461;SDS011;4769;42.660;23.262;2023-10-31T00:11:41;7.22;;;4.32;;
9461;SDS011;4769;42.660;23.262;2023-10-31T00:14:07;5.78;;;4.00;;
9461;SDS011;4769;42.660;23.262;2023-10-31T00:16:35;8.70;;;4.38;;
9461;SDS011;4769;42.660;23.262;2023-10-31T00:19:01;8.20;;;4.45;;
9461;SDS011;4769;42.660;23.262;2023-10-31T00:21:27;8.35;;;4.45;;
9461;SDS011;4769;42.660;23.262;2023-10-31T00:23:52;10.63;;;4.82;;
9461;SDS011;4769;42.660;23.262;2023-10-31T00:26:18;8.70;;;4.35;;
9461;SDS011;4769;42.660;23.262;2023-10-31T00:28:44;9.13;;;4.88;;
9461;SDS011;4769;42.660;23.262;2023-10-31T00:31:09;7.15;;;4.32;;
9461;SDS011;4769;42.660;23.262;2023-10-31T00:33:38;8.93;;;4.13;;
9461;SDS011;4769;42.660;23.262;2023-10-31T00:36:04;8.25;;;4.32;;
9461;SDS011;4769;42.660;23.262;2023-10-31T00:38:29;8.32;;;5.20;;
9461;SDS011;4769;42.660;23.262;2023-10-31T00:40:55;7.82;;;3.80;;
9461;SDS011;4769;42.660;23.262;2023-10-31T00:43:21;5.75;;;3.90;;
9461;SDS011;4769;42.660;23.262;2023-10-31T00:45:47;6.68;;;4.20;;
9461;SDS011;4769;42.660;23.262;2023-10-31T00:48:13;9.98;;;5.13;;
9461;SDS011;4769;42.660;23.262;2023-10-31T00:50:41;9.75;;;4.82;;
9461;SDS011;4769;42.660;23.262;2023-10-31T00:53:07;7.35;;;4.95;;
9461;SDS011;4769;42.660;23.262;2023-10-31T00:55:32;7.95;;;4.97;;
9461;SDS011;4769;42.660;23.262;2023-10-31T00:57:58;9.60;;;4.97;;
9461;SDS011;4769;42.660;23.262;2023-10-31T01:00:24;9.15;;;4.93;;
9461;SDS011;4769;42.660;23.262;2023-10-31T01:02:49;11.90;;;4.82;;
9461;SDS011;4769;42.660;23.262;2023-10-31T01:05:15;6.50;;;4.50;;
9461;SDS011;4769;42.660;23.262;2023-10-31T01:07:44;10.60;;;4.78;;
9461;SDS011;4769;42.660;23.262;2023-10-31T01:10:09;6.95;;;4.70;;
9461;SDS011;4769;42.660;23.262;2023-10-31T01:12:35;8.27;;;4.45;;
9461;SDS011;4769;42.660;23.262;2023-10-31T01:15:02;6.88;;;4.38;;
9461;SDS011;4769;42.660;23.262;2023-10-31T01:17:28;7.18;;;4.50;;
9461;SDS011;4769;42.660;23.262;2023-10-31T01:19:53;8.38;;;4.85;;
9461;SDS011;4769;42.660;23.262;2023-10-31T01:22:19;8.18;;;4.90;;
9461;SDS011;4769;42.660;23.262;2023-10-31T01:24:47;11.80;;;5.05;;
9461;SDS011;4769;42.660;23.262;2023-10-31T01:27:13;9.25;;;4.88;;
9461;SDS011;4769;42.660;23.262;2023-10-31T01:29:39;8.30;;;4.55;;
9461;SDS011;4769;42.660;23.262;2023-10-31T01:32:04;7.75;;;4.78;;
9461;SDS011;4769;42.660;23.262;2023-10-31T01:34:30;9.75;;;4.25;;
9461;SDS011;4769;42.660;23.262;2023-10-31T01:36:56;6.22;;;4.32;;
9461;SDS011;4769;42.660;23.262;2023-10-31T01:39:22;8.48;;;4.50;;
9461;SDS011;4769;42.660;23.262;2023-10-31T01:41:50;8.00;;;5.00;;
9461;SDS011;4769;42.660;23.262;2023-10-31T01:44:16;10.10;;;4.60;;
9461;SDS011;4769;42.660;23.262;2023-10-31T01:46:41;6.22;;;4.32;;
9461;SDS011;4769;42.660;23.262;2023-10-31T01:49:07;7.97;;;3.95;;
9461;SDS011;4769;42.660;23.262;2023-10-31T01:51:33;8.18;;;4.10;;
9461;SDS011;4769;42.660;23.262;2023-10-31T01:53:59;7.85;;;4.57;;
9461;SDS011;4769;42.660;23.262;2023-10-31T01:56:25;7.03;;;4.82;;
9461;SDS011;4769;42.660;23.262;2023-10-31T01:58:54;11.07;;;5.22;;
9461;SDS011;4769;42.660;23.262;2023-10-31T02:01:20;7.63;;;5.05;;
9461;SDS011;4769;42.660;23.262;2023-10-31T02:03:45;9.55;;;4.93;;
9461;SDS011;4769;42.660;23.262;2023-10-31T02:06:11;10.85;;;5.25;;
9461;SDS011;4769;42.660;23.262;2023-10-31T02:08:37;11.90;;;5.18;;
9461;SDS011;4769;42.660;23.262;2023-10-31T02:11:03;10.30;;;5.90;;
9461;SDS011;4769;42.660;23.262;2023-10-31T02:13:28;7.70;;;4.88;;
9461;SDS011;4769;42.660;23.262;2023-10-31T02:15:57;9.52;;;5.13;;
9461;SDS011;4769;42.660;23.262;2023-10-31T02:18:22;9.50;;;5.35;;
9461;SDS011;4769;42.660;23.262;2023-10-31T02:20:48;9.80;;;6.15;;
9461;SDS011;4769;42.660;23.262;2023-10-31T02:23:17;9.85;;;5.45;;
9461;SDS011;4769;42.660;23.262;2023-10-31T02:25:43;10.10;;;5.30;;
9461;SDS011;4769;42.660;23.262;2023-10-31T02:28:09;9.02;;;5.43;;
9461;SDS011;4769;42.660;23.262;2023-10-31T02:30:35;10.27;;;6.35;;
9461;SDS011;4769;42.660;23.262;2023-10-31T02:33:00;8.13;;;4.55;;
9461;SDS011;4769;42.660;23.262;2023-10-31T02:35:26;8.38;;;5.28;;
9461;SDS011;4769;42.660;23.262;2023-10-31T02:37:52;8.60;;;6.00;;
9461;SDS011;4769;42.660;23.262;2023-10-31T02:40:20;10.35;;;5.50;;
9461;SDS011;4769;42.660;23.262;2023-10-31T02:42:46;11.10;;;5.68;;
9461;SDS011;4769;42.660;23.262;2023-10-31T02:45:12;10.38;;;5.93;;
9461;SDS011;4769;42.660;23.262;2023-10-31T02:47:38;12.98;;;6.00;;
9461;SDS011;4769;42.660;23.262;2023-10-31T02:50:04;8.10;;;5.50;;
9461;SDS011;4769;42.660;23.262;2023-10-31T02:52:30;9.85;;;5.57;;
9461;SDS011;4769;42.660;23.262;2023-10-31T02:54:56;8.48;;;5.55;;
9461;SDS011;4769;42.660;23.262;2023-10-31T02:57:24;8.10;;;5.15;;
9461;SDS011;4769;42.660;23.262;2023-10-31T02:59:50;6.50;;;5.30;;
9461;SDS011;4769;42.660;23.262;2023-10-31T03:02:16;10.35;;;5.68;;
9461;SDS011;4769;42.660;23.262;2023-10-31T03:04:41;7.40;;;5.45;;
9461;SDS011;4769;42.660;23.262;2023-10-31T03:07:07;7.85;;;5.13;;
9461;SDS011;4769;42.660;23.262;2023-10-31T03:09:33;8.27;;;5.50;;
9461;SDS011;4769;42.660;23.262;2023-10-31T03:11:58;10.75;;;5.78;;
9461;SDS011;4769;42.660;23.262;2023-10-31T03:14:27;9.43;;;5.30;;
9461;SDS011;4769;42.660;23.262;2023-10-31T03:16:52;8.70;;;4.97;;
9461;SDS011;4769;42.660;23.262;2023-10-31T03:19:18;9.80;;;5.47;;
9461;SDS011;4769;42.660;23.262;2023-10-31T03:21:44;8.80;;;5.50;;
9461;SDS011;4769;42.660;23.262;2023-10-31T03:24:09;10.82;;;5.43;;
9461;SDS011;4769;42.660;23.262;2023-10-31T03:26:35;7.15;;;5.43;;
9461;SDS011;4769;42.660;23.262;2023-10-31T03:29:01;6.95;;;4.82;;
9461;SDS011;4769;42.660;23.262;2023-10-31T03:31:29;7.60;;;4.85;;
9461;SDS011;4769;42.660;23.262;2023-10-31T03:33:55;8.15;;;4.28;;
9461;SDS011;4769;42.660;23.262;2023-10-31T03:36:20;8.20;;;4.55;;
9461;SDS011;4769;42.660;23.262;2023-10-31T03:38:46;10.35;;;5.10;;
9461;SDS011;4769;42.660;23.262;2023-10-31T03:41:12;7.78;;;4.68;;
9461;SDS011;4769;42.660;23.262;2023-10-31T03:43:37;5.85;;;4.78;;
9461;SDS011;4769;42.660;23.262;2023-10-31T03:46:03;7.80;;;5.65;;
9461;SDS011;4769;42.660;23.262;2023-10-31T03:48:32;6.70;;;5.00;;
9461;SDS011;4769;42.660;23.262;2023-10-31T03:50:57;9.25;;;5.40;;
9461;SDS011;4769;42.660;23.262;2023-10-31T03:53:23;7.82;;;5.10;;
9461;SDS011;4769;42.660;23.262;2023-10-31T03:55:49;8.90;;;4.95;;
9461;SDS011;4769;42.660;23.262;2023-10-31T03:58:14;7.72;;;5.30;;
9461;SDS011;4769;42.660;23.262;2023-10-31T04:00:40;12.98;;;5.75;;
9461;SDS011;4769;42.660;23.262;2023-10-31T04:03:06;7.57;;;4.47;;
9461;SDS011;4769;42.660;23.262;2023-10-31T04:05:35;12.30;;;5.68;;
9461;SDS011;4769;42.660;23.262;2023-10-31T04:08:01;8.20;;;5.30;;
9461;SDS011;4769;42.660;23.262;2023-10-31T04:10:27;9.63;;;6.03;;
9461;SDS011;4769;42.660;23.262;2023-10-31T04:12:52;9.63;;;5.60;;
9461;SDS011;4769;42.660;23.262;2023-10-31T04:15:18;9.73;;;5.63;;
9461;SDS011;4769;42.660;23.262;2023-10-31T04:17:44;9.30;;;5.50;;
9461;SDS011;4769;42.660;23.262;2023-10-31T04:20:10;11.77;;;6.10;;
9461;SDS011;4769;42.660;23.262;2023-10-31T04:22:38;9.40;;;6.53;;
9461;SDS011;4769;42.660;23.262;2023-10-31T04:25:05;10.48;;;5.90;;
9461;SDS011;4769;42.660;23.262;2023-10-31T04:27:31;10.35;;;5.95;;
9461;SDS011;4769;42.660;23.262;2023-10-31T04:29:56;10.23;;;5.90;;
9461;SDS011;4769;42.660;23.262;2023-10-31T04:32:22;9.40;;;5.50;;
9461;SDS011;4769;42.660;23.262;2023-10-31T04:34:48;11.07;;;6.40;;
9461;SDS011;4769;42.660;23.262;2023-10-31T04:37:13;10.20;;;6.17;;
9461;SDS011;4769;42.660;23.262;2023-10-31T04:39:41;7.95;;;5.75;;
9461;SDS011;4769;42.660;23.262;2023-10-31T04:42:08;9.27;;;6.33;;
9461;SDS011;4769;42.660;23.262;2023-10-31T04:44:33;10.47;;;5.63;;
9461;SDS011;4769;42.660;23.262;2023-10-31T04:46:59;8.07;;;6.10;;
9461;SDS011;4769;42.660;23.262;2023-10-31T04:49:25;12.00;;;6.47;;
9461;SDS011;4769;42.660;23.262;2023-10-31T04:51:50;8.30;;;5.87;;
9461;SDS011;4769;42.660;23.262;2023-10-31T04:54:16;7.97;;;5.50;;
9461;SDS011;4769;42.660;23.262;2023-10-31T04:56:44;7.57;;;5.73;;
9461;SDS011;4769;42.660;23.262;2023-10-31T04:59:12;8.07;;;5.50;;
9461;SDS011;4769;42.660;23.262;2023-10-31T05:01:37;8.17;;;5.70;;
9461;SDS011;4769;42.660;23.262;2023-10-31T05:04:03;10.17;;;6.80;;
9461;SDS011;4769;42.660;23.262;2023-10-31T05:06:29;10.63;;;6.40;;
9461;SDS011;4769;42.660;23.262;2023-10-31T05:08:55;10.57;;;7.17;;
9461;SDS011;4769;42.660;23.262;2023-10-31T05:11:21;10.97;;;7.10;;
9461;SDS011;4769;42.660;23.262;2023-10-31T05:13:50;12.82;;;7.82;;
9461;SDS011;4769;42.660;23.262;2023-10-31T05:16:16;13.13;;;6.80;;
9461;SDS011;4769;42.660;23.262;2023-10-31T05:18:41;15.07;;;8.60;;
9461;SDS011;4769;42.660;23.262;2023-10-31T05:21:07;13.30;;;8.57;;
9461;SDS011;4769;42.660;23.262;2023-10-31T05:23:33;12.30;;;7.33;;
9461;SDS011;4769;42.660;23.262;2023-10-31T05:25:58;14.63;;;7.20;;
9461;SDS011;4769;42.660;23.262;2023-10-31T05:28:24;10.63;;;6.80;;
9461;SDS011;4769;42.660;23.262;2023-10-31T05:30:52;8.97;;;7.00;;
9461;SDS011;4769;42.660;23.262;2023-10-31T05:33:18;12.63;;;6.63;;
9461;SDS011;4769;42.660;23.262;2023-10-31T05:35:44;10.37;;;6.77;;
9461;SDS011;4769;42.660;23.262;2023-10-31T05:38:09;15.27;;;6.80;;
9461;SDS011;4769;42.660;23.262;2023-10-31T05:40:35;11.70;;;7.57;;
9461;SDS011;4769;42.660;23.262;2023-10-31T05:43:01;16.27;;;10.17;;
9461;SDS011;4769;42.660;23.262;2023-10-31T05:45:27;15.83;;;10.63;;
9461;SDS011;4769;42.660;23.262;2023-10-31T05:47:55;18.53;;;9.33;;
9461;SDS011;4769;42.660;23.262;2023-10-31T05:50:21;14.40;;;8.47;;
9461;SDS011;4769;42.660;23.262;2023-10-31T05:52:46;17.97;;;10.30;;
9461;SDS011;4769;42.660;23.262;2023-10-31T05:55:12;19.58;;;8.60;;
9461;SDS011;4769;42.660;23.262;2023-10-31T05:57:38;16.40;;;8.23;;
9461;SDS011;4769;42.660;23.262;2023-10-31T06:00:04;17.15;;;8.85;;
9461;SDS011;4769;42.660;23.262;2023-10-31T06:02:31;11.63;;;7.90;;
9461;SDS011;4769;42.660;23.262;2023-10-31T06:04:59;8.83;;;7.30;;
9461;SDS011;4769;42.660;23.262;2023-10-31T06:07:24;10.57;;;8.20;;
9461;SDS011;4769;42.660;23.262;2023-10-31T06:09:50;12.17;;;8.90;;
9461;SDS011;4769;42.660;23.262;2023-10-31T06:12:16;14.83;;;9.57;;
9461;SDS011;4769;42.660;23.262;2023-10-31T06:14:42;17.30;;;9.57;;
9461;SDS011;4769;42.660;23.262;2023-10-31T06:17:07;15.07;;;10.00;;
9461;SDS011;4769;42.660;23.262;2023-10-31T06:19:34;16.40;;;9.60;;
9461;SDS011;4769;42.660;23.262;2023-10-31T06:22:02;18.97;;;10.73;;
9461;SDS011;4769;42.660;23.262;2023-10-31T06:24:28;16.13;;;10.23;;
9461;SDS011;4769;42.660;23.262;2023-10-31T06:26:54;16.07;;;10.43;;
9461;SDS011;4769;42.660;23.262;2023-10-31T06:29:20;13.43;;;9.80;;
9461;SDS011;4769;42.660;23.262;2023-10-31T06:31:45;17.83;;;10.73;;
9461;SDS011;4769;42.660;23.262;2023-10-31T06:34:11;17.07;;;9.93;;
9461;SDS011;4769;42.660;23.262;2023-10-31T06:36:37;14.07;;;9.77;;
9461;SDS011;4769;42.660;23.262;2023-10-31T06:39:05;15.97;;;9.97;;
9461;SDS011;4769;42.660;23.262;2023-10-31T06:41:31;20.97;;;10.53;;
9461;SDS011;4769;42.660;23.262;2023-10-31T06:43:56;13.47;;;9.50;;
9461;SDS011;4769;42.660;23.262;2023-10-31T06:46:22;19.58;;;10.35;;
9461;SDS011;4769;42.660;23.262;2023-10-31T06:48:48;18.05;;;11.65;;
9461;SDS011;4769;42.660;23.262;2023-10-31T06:51:14;16.33;;;9.93;;
9461;SDS011;4769;42.660;23.262;2023-10-31T06:53:39;14.70;;;9.02;;
9461;SDS011;4769;42.660;23.262;2023-10-31T06:56:08;11.60;;;9.77;;
9461;SDS011;4769;42.660;23.262;2023-10-31T06:58:33;16.73;;;10.20;;
9461;SDS011;4769;42.660;23.262;2023-10-31T07:00:59;16.80;;;10.45;;
9461;SDS011;4769;42.660;23.262;2023-10-31T07:03:25;16.85;;;10.60;;
9461;SDS011;4769;42.660;23.262;2023-10-31T07:05:51;15.52;;;9.48;;
9461;SDS011;4769;42.660;23.262;2023-10-31T07:08:16;15.65;;;10.90;;
9461;SDS011;4769;42.660;23.262;2023-10-31T07:10:42;14.00;;;9.68;;
9461;SDS011;4769;42.660;23.262;2023-10-31T07:13:11;17.98;;;10.07;;
9461;SDS011;4769;42.660;23.262;2023-10-31T07:15:37;17.55;;;10.38;;
9461;SDS011;4769;42.660;23.262;2023-10-31T07:18:03;16.45;;;10.15;;
9461;SDS011;4769;42.660;23.262;2023-10-31T07:20:28;17.23;;;9.50;;
9461;SDS011;4769;42.660;23.262;2023-10-31T07:22:54;16.00;;;9.02;;
9461;SDS011;4769;42.660;23.262;2023-10-31T07:25:20;18.13;;;10.60;;
9461;SDS011;4769;42.660;23.262;2023-10-31T07:27:45;16.95;;;9.80;;
9461;SDS011;4769;42.660;23.262;2023-10-31T07:30:14;25.00;;;10.65;;
9461;SDS011;4769;42.660;23.262;2023-10-31T07:32:40;16.08;;;10.98;;
9461;SDS011;4769;42.660;23.262;2023-10-31T07:35:06;14.82;;;10.60;;
9461;SDS011;4769;42.660;23.262;2023-10-31T07:37:32;17.00;;;10.85;;
9461;SDS011;4769;42.660;23.262;2023-10-31T07:39:58;16.90;;;11.15;;
9461;SDS011;4769;42.660;23.262;2023-10-31T07:42:23;16.38;;;10.27;;
9461;SDS011;4769;42.660;23.262;2023-10-31T07:44:49;13.32;;;10.32;;
9461;SDS011;4769;42.660;23.262;2023-10-31T07:47:17;16.60;;;10.32;;
9461;SDS011;4769;42.660;23.262;2023-10-31T07:49:43;17.60;;;10.70;;
9461;SDS011;4769;42.660;23.262;2023-10-31T07:52:09;19.73;;;11.20;;
9461;SDS011;4769;42.660;23.262;2023-10-31T07:54:34;18.95;;;11.50;;
9461;SDS011;4769;42.660;23.262;2023-10-31T07:57:04;17.15;;;11.43;;
9461;SDS011;4769;42.660;23.262;2023-10-31T07:59:31;17.90;;;11.73;;
9461;SDS011;4769;42.660;23.262;2023-10-31T08:01:58;26.92;;;12.48;;
9461;SDS011;4769;42.660;23.262;2023-10-31T08:04:26;21.17;;;11.15;;
9461;SDS011;4769;42.660;23.262;2023-10-31T08:06:52;19.77;;;11.15;;
9461;SDS011;4769;42.660;23.262;2023-10-31T08:09:18;16.67;;;10.77;;
9461;SDS011;4769;42.660;23.262;2023-10-31T08:11:43;15.85;;;10.15;;
9461;SDS011;4769;42.660;23.262;2023-10-31T08:14:09;19.48;;;11.43;;
9461;SDS011;4769;42.660;23.262;2023-10-31T08:16:35;12.38;;;10.25;;
9461;SDS011;4769;42.660;23.262;2023-10-31T08:19:00;20.55;;;11.13;;
9461;SDS011;4769;42.660;23.262;2023-10-31T08:21:30;16.95;;;10.73;;
9461;SDS011;4769;42.660;23.262;2023-10-31T08:23:56;17.65;;;10.20;;
9461;SDS011;4769;42.660;23.262;2023-10-31T08:26:21;15.90;;;10.27;;
9461;SDS011;4769;42.660;23.262;2023-10-31T08:28:47;16.30;;;9.65;;
9461;SDS011;4769;42.660;23.262;2023-10-31T08:31:13;16.55;;;9.05;;
9461;SDS011;4769;42.660;23.262;2023-10-31T08:33:38;16.40;;;8.15;;
9461;SDS011;4769;42.660;23.262;2023-10-31T08:36:04;12.55;;;8.57;;
9461;SDS011;4769;42.660;23.262;2023-10-31T08:38:33;14.23;;;7.97;;
9461;SDS011;4769;42.660;23.262;2023-10-31T08:40:59;17.98;;;7.88;;
9461;SDS011;4769;42.660;23.262;2023-10-31T08:43:25;11.38;;;7.10;;
9461;SDS011;4769;42.660;23.262;2023-10-31T08:45:51;16.33;;;7.63;;
9461;SDS011;4769;42.660;23.262;2023-10-31T08:48:16;11.45;;;8.15;;
9461;SDS011;4769;42.660;23.262;2023-10-31T08:50:42;12.70;;;7.55;;
9461;SDS011;4769;42.660;23.262;2023-10-31T08:53:08;13.93;;;8.13;;
9461;SDS011;4769;42.660;23.262;2023-10-31T08:55:36;12.98;;;8.20;;
9461;SDS011;4769;42.660;23.262;2023-10-31T08:58:02;14.43;;;7.85;;
9461;SDS011;4769;42.660;23.262;2023-10-31T09:00:27;12.90;;;8.18;;
9461;SDS011;4769;42.660;23.262;2023-10-31T09:02:53;13.07;;;8.60;;
9461;SDS011;4769;42.660;23.262;2023-10-31T09:05:19;15.00;;;9.40;;
9461;SDS011;4769;42.660;23.262;2023-10-31T09:07:45;18.33;;;8.95;;
9461;SDS011;4769;42.660;23.262;2023-10-31T09:10:11;13.90;;;8.38;;
9461;SDS011;4769;42.660;23.262;2023-10-31T09:12:39;15.65;;;7.50;;
9461;SDS011;4769;42.660;23.262;2023-10-31T09:15:06;13.10;;;5.95;;
9461;SDS011;4769;42.660;23.262;2023-10-31T09:17:32;10.52;;;5.70;;
9461;SDS011;4769;42.660;23.262;2023-10-31T09:19:58;8.15;;;5.75;;
9461;SDS011;4769;42.660;23.262;2023-10-31T09:22:23;8.93;;;5.60;;
9461;SDS011;4769;42.660;23.262;2023-10-31T09:24:49;15.15;;;5.60;;
9461;SDS011;4769;42.660;23.262;2023-10-31T09:27:15;12.70;;;6.03;;
9461;SDS011;4769;42.660;23.262;2023-10-31T09:29:43;12.00;;;5.72;;
9461;SDS011;4769;42.660;23.262;2023-10-31T09:32:09;10.85;;;5.20;;
9461;SDS011;4769;42.660;23.262;2023-10-31T09:34:34;9.63;;;6.00;;
9461;SDS011;4769;42.660;23.262;2023-10-31T09:37:00;11.05;;;5.53;;
9461;SDS011;4769;42.660;23.262;2023-10-31T09:39:26;15.48;;;5.88;;
9461;SDS011;4769;42.660;23.262;2023-10-31T09:41:51;15.40;;;5.80;;
9461;SDS011;4769;42.660;23.262;2023-10-31T09:44:17;11.40;;;5.40;;
9461;SDS011;4769;42.660;23.262;2023-10-31T09:46:46;8.82;;;5.32;;
9461;SDS011;4769;42.660;23.262;2023-10-31T09:49:12;8.30;;;4.93;;
9461;SDS011;4769;42.660;23.262;2023-10-31T09:51:38;12.50;;;4.68;;
9461;SDS011;4769;42.660;23.262;2023-10-31T09:54:04;9.57;;;4.30;;
9461;SDS011;4769;42.660;23.262;2023-10-31T09:56:32;14.57;;;4.85;;
9461;SDS011;4769;42.660;23.262;2023-10-31T09:58:58;9.95;;;4.50;;
9461;SDS011;4769;42.660;23.262;2023-10-31T10:01:23;11.10;;;5.03;;
9461;SDS011;4769;42.660;23.262;2023-10-31T10:03:52;11.13;;;7.63;;
9461;SDS011;4769;42.660;23.262;2023-10-31T10:06:18;10.43;;;5.68;;
9461;SDS011;4769;42.660;23.262;2023-10-31T10:08:44;9.73;;;4.38;;
9461;SDS011;4769;42.660;23.262;2023-10-31T10:11:10;13.52;;;5.00;;
9461;SDS011;4769;42.660;23.262;2023-10-31T10:13:36;6.55;;;4.47;;
9461;SDS011;4769;42.660;23.262;2023-10-31T10:16:02;9.70;;;4.90;;
9461;SDS011;4769;42.660;23.262;2023-10-31T10:18:29;10.05;;;5.07;;
9461;SDS011;4769;42.660;23.262;2023-10-31T10:21:00;7.65;;;4.07;;
9461;SDS011;4769;42.660;23.262;2023-10-31T10:23:27;10.15;;;4.25;;
9461;SDS011;4769;42.660;23.262;2023-10-31T10:25:53;8.50;;;4.03;;
9461;SDS011;4769;42.660;23.262;2023-10-31T10:28:20;8.85;;;3.80;;
9461;SDS011;4769;42.660;23.262;2023-10-31T10:30:46;6.65;;;3.92;;
9461;SDS011;4769;42.660;23.262;2023-10-31T10:33:12;9.65;;;4.72;;
9461;SDS011;4769;42.660;23.262;2023-10-31T10:35:37;7.28;;;4.38;;
9461;SDS011;4769;42.660;23.262;2023-10-31T10:38:06;11.38;;;4.85;;
9461;SDS011;4769;42.660;23.262;2023-10-31T10:40:36;10.40;;;4.18;;
9461;SDS011;4769;42.660;23.262;2023-10-31T10:43:03;9.43;;;4.65;;
9461;SDS011;4769;42.660;23.262;2023-10-31T10:45:31;11.68;;;5.32;;
9461;SDS011;4769;42.660;23.262;2023-10-31T10:47:57;11.98;;;4.57;;
9461;SDS011;4769;42.660;23.262;2023-10-31T10:50:27;6.68;;;4.72;;
9461;SDS011;4769;42.660;23.262;2023-10-31T10:52:59;10.57;;;5.13;;
9461;SDS011;4769;42.660;23.262;2023-10-31T10:55:35;5.55;;;4.30;;
9461;SDS011;4769;42.660;23.262;2023-10-31T10:58:05;13.25;;;4.45;;
9461;SDS011;4769;42.660;23.262;2023-10-31T11:00:33;10.90;;;4.40;;
9461;SDS011;4769;42.660;23.262;2023-10-31T11:02:59;11.38;;;4.50;;
9461;SDS011;4769;42.660;23.262;2023-10-31T11:05:26;9.30;;;4.53;;
9461;SDS011;4769;42.660;23.262;2023-10-31T11:07:52;9.77;;;4.65;;
9461;SDS011;4769;42.660;23.262;2023-10-31T11:10:18;12.20;;;4.60;;
9461;SDS011;4769;42.660;23.262;2023-10-31T11:12:47;8.45;;;4.50;;
9461;SDS011;4769;42.660;23.262;2023-10-31T11:15:14;7.43;;;4.25;;
9461;SDS011;4769;42.660;23.262;2023-10-31T11:17:42;7.30;;;4.20;;
9461;SDS011;4769;42.660;23.262;2023-10-31T11:20:10;7.63;;;4.00;;
9461;SDS011;4769;42.660;23.262;2023-10-31T11:22:38;5.60;;;3.47;;
9461;SDS011;4769;42.660;23.262;2023-10-31T11:25:04;6.43;;;3.42;;
9461;SDS011;4769;42.660;23.262;2023-10-31T11:27:33;6.03;;;3.25;;
9461;SDS011;4769;42.660;23.262;2023-10-31T11:30:02;9.77;;;3.80;;
9461;SDS011;4769;42.660;23.262;2023-10-31T11:32:31;11.35;;;4.28;;
9461;SDS011;4769;42.660;23.262;2023-10-31T11:34:57;11.70;;;4.47;;
9461;SDS011;4769;42.660;23.262;2023-10-31T11:37:25;9.85;;;4.60;;
9461;SDS011;4769;42.660;23.262;2023-10-31T11:42:42;6.93;;;3.88;;
9461;SDS011;4769;42.660;23.262;2023-10-31T11:45:10;9.23;;;4.35;;
9461;SDS011;4769;42.660;23.262;2023-10-31T11:47:46;7.22;;;4.00;;
9461;SDS011;4769;42.660;23.262;2023-10-31T11:50:11;7.38;;;3.60;;
9461;SDS011;4769;42.660;23.262;2023-10-31T11:52:37;5.03;;;3.10;;
9461;SDS011;4769;42.660;23.262;2023-10-31T11:55:04;11.38;;;3.33;;
9461;SDS011;4769;42.660;23.262;2023-10-31T11:57:33;8.90;;;3.13;;
9461;SDS011;4769;42.660;23.262;2023-10-31T11:59:59;9.13;;;3.58;;
9461;SDS011;4769;42.660;23.262;2023-10-31T12:02:28;7.15;;;3.45;;
9461;SDS011;4769;42.660;23.262;2023-10-31T12:05:06;8.88;;;3.92;;
9461;SDS011;4769;42.660;23.262;2023-10-31T12:07:40;8.68;;;4.35;;
9461;SDS011;4769;42.660;23.262;2023-10-31T12:10:07;6.93;;;4.30;;
9461;SDS011;4769;42.660;23.262;2023-10-31T12:12:34;9.80;;;3.72;;
9461;SDS011;4769;42.660;23.262;2023-10-31T12:15:04;7.90;;;3.58;;
9461;SDS011;4769;42.660;23.262;2023-10-31T12:17:33;7.38;;;3.40;;
9461;SDS011;4769;42.660;23.262;2023-10-31T12:20:02;7.05;;;3.28;;
9461;SDS011;4769;42.660;23.262;2023-10-31T12:22:28;7.70;;;3.00;;
9461;SDS011;4769;42.660;23.262;2023-10-31T12:24:59;6.50;;;3.65;;
9461;SDS011;4769;42.660;23.262;2023-10-31T12:27:25;6.20;;;3.22;;
9461;SDS011;4769;42.660;23.262;2023-10-31T12:30:07;8.45;;;3.90;;
9461;SDS011;4769;42.660;23.262;2023-10-31T12:32:36;8.98;;;3.38;;
9461;SDS011;4769;42.660;23.262;2023-10-31T12:35:02;7.03;;;3.35;;
9461;SDS011;4769;42.660;23.262;2023-10-31T12:37:29;8.98;;;3.05;;
9461;SDS011;4769;42.660;23.262;2023-10-31T12:39:56;7.07;;;3.00;;
9461;SDS011;4769;42.660;23.262;2023-10-31T12:42:23;5.80;;;3.20;;
9461;SDS011;4769;42.660;23.262;2023-10-31T12:44:49;11.52;;;3.70;;
9461;SDS011;4769;42.660;23.262;2023-10-31T12:47:20;6.00;;;2.70;;
9461;SDS011;4769;42.660;23.262;2023-10-31T12:49:49;5.85;;;3.20;;
9461;SDS011;4769;42.660;23.262;2023-10-31T12:52:44;13.63;;;4.95;;
9461;SDS011;4769;42.660;23.262;2023-10-31T12:55:14;26.23;;;5.28;;
9461;SDS011;4769;42.660;23.262;2023-10-31T12:57:40;11.82;;;4.07;;
9461;SDS011;4769;42.660;23.262;2023-10-31T13:00:07;9.32;;;3.85;;
9461;SDS011;4769;42.660;23.262;2023-10-31T13:02:33;8.93;;;3.60;;
9461;SDS011;4769;42.660;23.262;2023-10-31T13:05:10;6.43;;;3.30;;
9461;SDS011;4769;42.660;23.262;2023-10-31T13:07:36;9.90;;;3.78;;
9461;SDS011;4769;42.660;23.262;2023-10-31T13:10:02;9.60;;;3.35;;
9461;SDS011;4769;42.660;23.262;2023-10-31T13:12:29;5.97;;;3.30;;
9461;SDS011;4769;42.660;23.262;2023-10-31T13:14:55;10.48;;;3.67;;
9461;SDS011;4769;42.660;23.262;2023-10-31T13:17:21;11.85;;;3.40;;
9461;SDS011;4769;42.660;23.262;2023-10-31T13:19:47;6.90;;;3.35;;
9461;SDS011;4769;42.660;23.262;2023-10-31T13:22:15;11.40;;;3.53;;
9461;SDS011;4769;42.660;23.262;2023-10-31T13:24:41;7.57;;;3.33;;
9461;SDS011;4769;42.660;23.262;2023-10-31T13:27:06;7.90;;;3.50;;
9461;SDS011;4769;42.660;23.262;2023-10-31T13:29:32;8.65;;;4.03;;
9461;SDS011;4769;42.660;23.262;2023-10-31T13:31:58;7.32;;;3.97;;
9461;SDS011;4769;42.660;23.262;2023-10-31T13:34:24;6.65;;;3.50;;
9461;SDS011;4769;42.660;23.262;2023-10-31T13:36:49;12.57;;;4.15;;
9461;SDS011;4769;42.660;23.262;2023-10-31T13:39:18;13.43;;;3.70;;
9461;SDS011;4769;42.660;23.262;2023-10-31T13:41:43;8.55;;;3.88;;
9461;SDS011;4769;42.660;23.262;2023-10-31T13:44:09;10.48;;;4.50;;
9461;SDS011;4769;42.660;23.262;2023-10-31T13:46:35;10.30;;;3.80;;
9461;SDS011;4769;42.660;23.262;2023-10-31T13:49:00;10.07;;;4.25;;
9461;SDS011;4769;42.660;23.262;2023-10-31T13:51:26;6.30;;;3.55;;
9461;SDS011;4769;42.660;23.262;2023-10-31T13:53:52;10.60;;;3.67;;
9461;SDS011;4769;42.660;23.262;2023-10-31T13:56:20;9.07;;;3.78;;
9461;SDS011;4769;42.660;23.262;2023-10-31T13:58:46;6.40;;;3.80;;
9461;SDS011;4769;42.660;23.262;2023-10-31T14:01:12;9.77;;;3.88;;
9461;SDS011;4769;42.660;23.262;2023-10-31T14:03:39;25.63;;;4.90;;
9461;SDS011;4769;42.660;23.262;2023-10-31T14:06:05;8.88;;;3.53;;
9461;SDS011;4769;42.660;23.262;2023-10-31T14:08:31;14.07;;;3.83;;
9461;SDS011;4769;42.660;23.262;2023-10-31T14:10:57;6.55;;;2.92;;
9461;SDS011;4769;42.660;23.262;2023-10-31T14:13:25;7.82;;;3.50;;
9461;SDS011;4769;42.660;23.262;2023-10-31T14:15:53;10.38;;;3.42;;
9461;SDS011;4769;42.660;23.262;2023-10-31T14:18:18;7.53;;;3.80;;
9461;SDS011;4769;42.660;23.262;2023-10-31T14:20:44;6.80;;;3.22;;
9461;SDS011;4769;42.660;23.262;2023-10-31T14:23:10;6.38;;;3.60;;
9461;SDS011;4769;42.660;23.262;2023-10-31T14:25:35;10.70;;;4.28;;
9461;SDS011;4769;42.660;23.262;2023-10-31T14:28:01;11.32;;;5.00;;
9461;SDS011;4769;42.660;23.262;2023-10-31T14:30:30;10.05;;;6.35;;
9461;SDS011;4769;42.660;23.262;2023-10-31T14:32:55;9.20;;;5.25;;
9461;SDS011;4769;42.660;23.262;2023-10-31T14:35:21;7.18;;;4.30;;
9461;SDS011;4769;42.660;23.262;2023-10-31T14:37:47;19.08;;;4.97;;
9461;SDS011;4769;42.660;23.262;2023-10-31T14:40:12;17.40;;;4.60;;
9461;SDS011;4769;42.660;23.262;2023-10-31T14:42:38;11.35;;;5.82;;
9461;SDS011;4769;42.660;23.262;2023-10-31T14:45:04;8.38;;;5.35;;
9461;SDS011;4769;42.660;23.262;2023-10-31T14:47:33;7.95;;;4.68;;
9461;SDS011;4769;42.660;23.262;2023-10-31T14:49:59;8.32;;;5.10;;
9461;SDS011;4769;42.660;23.262;2023-10-31T14:52:26;16.65;;;6.05;;